sensor_id;sensor_type;location;lat;lon;timestamp;pressure;altitude;pressure_sealevel;temperature;humidity
54236;BME280;40151;43.606;1.472;2023-09-19T00:01:40;99732.31;;;26.22;49.96
54236;BME280;40151;43.606;1.472;2023-09-19T00:04:06;99736.81;;;26.21;50.39
54236;BME280;40151;43.606;1.472;2023-09-19T00:06:38;99733.16;;;26.22;49.79
54236;BME280;40151;43.606;1.472;2023-09-19T00:09:04;99734.97;;;26.22;50.09
54236;BME280;40151;43.606;1.472;2023-09-19T00:11:30;99738.75;;;26.19;50.33
54236;BME280;40151;43.606;1.472;2023-09-19T00:13:56;99739.59;;;26.20;50.35
54236;BME280;40151;43.606;1.472;2023-09-19T00:16:22;99728.03;;;26.19;50.11
54236;BME280;40151;43.606;1.472;2023-09-19T00:18:48;99737.06;;;26.18;50.49
54236;BME280;40151;43.606;1.472;2023-09-19T00:21:14;99732.69;;;26.17;50.53
54236;BME280;40151;43.606;1.472;2023-09-19T00:23:40;99744.34;;;26.16;50.61
54236;BME280;40151;43.606;1.472;2023-09-19T00:26:06;99740.94;;;26.14;50.36
54236;BME280;40151;43.606;1.472;2023-09-19T00:28:31;99740.94;;;26.14;50.47
54236;BME280;40151;43.606;1.472;2023-09-19T00:30:57;99737.53;;;26.12;51.00
54236;BME280;40151;43.606;1.472;2023-09-19T00:33:27;99727.69;;;26.12;50.84
54236;BME280;40151;43.606;1.472;2023-09-19T00:35:55;99727.06;;;26.09;50.73
54236;BME280;40151;43.606;1.472;2023-09-19T00:38:21;99720.88;;;26.08;50.74
54236;BME280;40151;43.606;1.472;2023-09-19T00:40:50;99729.03;;;26.07;50.72
54236;BME280;40151;43.606;1.472;2023-09-19T00:43:19;99722.94;;;26.05;50.93
54236;BME280;40151;43.606;1.472;2023-09-19T00:45:47;99730.84;;;26.06;51.08
54236;BME280;40151;43.606;1.472;2023-09-19T00:48:14;99733.88;;;26.01;51.20
54236;BME280;40151;43.606;1.472;2023-09-19T00:50:42;99732.91;;;26.03;51.09
54236;BME280;40151;43.606;1.472;2023-09-19T00:53:08;99735.09;;;25.97;51.16
54236;BME280;40151;43.606;1.472;2023-09-19T00:55:36;99735.34;;;25.94;51.25
54236;BME280;40151;43.606;1.472;2023-09-19T00:58:03;99733.53;;;25.95;51.37
54236;BME280;40151;43.606;1.472;2023-09-19T01:00:28;99736.31;;;25.93;50.95
54236;BME280;40151;43.606;1.472;2023-09-19T01:02:54;99736.53;;;25.90;51.20
54236;BME280;40151;43.606;1.472;2023-09-19T01:05:20;99734.47;;;25.94;50.93
54236;BME280;40151;43.606;1.472;2023-09-19T01:07:45;99732.06;;;25.91;50.97
54236;BME280;40151;43.606;1.472;2023-09-19T01:10:15;99735.56;;;25.91;51.52
54236;BME280;40151;43.606;1.472;2023-09-19T01:15:32;99732.16;;;25.89;51.09
54236;BME280;40151;43.606;1.472;2023-09-19T01:21:15;99733.25;;;25.86;51.42
54236;BME280;40151;43.606;1.472;2023-09-19T01:29:38;99724.50;;;25.84;51.52
54236;BME280;40151;43.606;1.472;2023-09-19T01:32:05;99727.28;;;25.83;51.18
54236;BME280;40151;43.606;1.472;2023-09-19T01:37:19;99727.28;;;25.83;51.15
54236;BME280;40151;43.606;1.472;2023-09-19T01:39:51;99725.59;;;25.82;51.26
54236;BME280;40151;43.606;1.472;2023-09-19T01:47:53;99714.91;;;25.82;51.06
54236;BME280;40151;43.606;1.472;2023-09-19T01:50:34;99713.22;;;25.81;51.37
54236;BME280;40151;43.606;1.472;2023-09-19T01:53:12;99718.56;;;25.81;51.50
54236;BME280;40151;43.606;1.472;2023-09-19T01:55:43;99710.53;;;25.81;51.25
54236;BME280;40151;43.606;1.472;2023-09-19T01:58:45;99720.47;;;25.79;51.47
54236;BME280;40151;43.606;1.472;2023-09-19T02:01:11;99717.94;;;25.77;51.20
54236;BME280;40151;43.606;1.472;2023-09-19T02:03:39;99707.25;;;25.77;51.48
54236;BME280;40151;43.606;1.472;2023-09-19T02:06:06;99712.72;;;25.76;51.22
54236;BME280;40151;43.606;1.472;2023-09-19T02:08:36;99707.47;;;25.74;51.50
54236;BME280;40151;43.606;1.472;2023-09-19T02:11:02;99712.59;;;25.77;51.43
54236;BME280;40151;43.606;1.472;2023-09-19T02:13:27;99706.38;;;25.77;51.41
54236;BME280;40151;43.606;1.472;2023-09-19T02:15:53;99708.34;;;25.74;51.50
54236;BME280;40151;43.606;1.472;2023-09-19T02:18:19;99710.03;;;25.76;51.31
54236;BME280;40151;43.606;1.472;2023-09-19T02:20:45;99706.63;;;25.73;51.38
54236;BME280;40151;43.606;1.472;2023-09-19T02:23:11;99704.81;;;25.74;51.10
54236;BME280;40151;43.606;1.472;2023-09-19T02:25:38;99704.69;;;25.76;51.32
54236;BME280;40151;43.606;1.472;2023-09-19T02:28:04;99699.56;;;25.72;51.05
54236;BME280;40151;43.606;1.472;2023-09-19T02:30:31;99696.91;;;25.72;51.43
54236;BME280;40151;43.606;1.472;2023-09-19T02:32:56;99691.56;;;25.72;51.01
54236;BME280;40151;43.606;1.472;2023-09-19T02:35:22;99683.53;;;25.72;51.26
54236;BME280;40151;43.606;1.472;2023-09-19T02:37:48;99687.91;;;25.73;51.05
54236;BME280;40151;43.606;1.472;2023-09-19T02:40:14;99688.88;;;25.72;50.93
54236;BME280;40151;43.606;1.472;2023-09-19T02:42:53;99681.84;;;25.71;51.27
54236;BME280;40151;43.606;1.472;2023-09-19T02:45:19;99683.69;;;25.71;50.99
54236;BME280;40151;43.606;1.472;2023-09-19T02:47:45;99682.09;;;25.68;50.92
54236;BME280;40151;43.606;1.472;2023-09-19T02:50:11;99682.81;;;25.70;51.26
54236;BME280;40151;43.606;1.472;2023-09-19T02:52:37;99674.19;;;25.67;51.47
54236;BME280;40151;43.606;1.472;2023-09-19T02:55:03;99673.09;;;25.69;51.42
54236;BME280;40151;43.606;1.472;2023-09-19T02:57:31;99668.84;;;25.67;51.36
54236;BME280;40151;43.606;1.472;2023-09-19T02:59:59;99669.69;;;25.67;51.27
54236;BME280;40151;43.606;1.472;2023-09-19T03:02:26;99666.41;;;25.64;51.19
54236;BME280;40151;43.606;1.472;2023-09-19T03:04:53;99666.28;;;25.65;51.35
54236;BME280;40151;43.606;1.472;2023-09-19T03:07:18;99669.94;;;25.64;51.13
54236;BME280;40151;43.606;1.472;2023-09-19T03:09:44;99665.44;;;25.65;51.32
54236;BME280;40151;43.606;1.472;2023-09-19T03:12:10;99669.94;;;25.64;51.12
54236;BME280;40151;43.606;1.472;2023-09-19T03:14:36;99667.97;;;25.66;51.02
54236;BME280;40151;43.606;1.472;2023-09-19T03:17:01;99676.97;;;25.65;50.98
54236;BME280;40151;43.606;1.472;2023-09-19T03:19:30;99675.28;;;25.64;51.10
54236;BME280;40151;43.606;1.472;2023-09-19T03:21:55;99680.63;;;25.64;51.01
54236;BME280;40151;43.606;1.472;2023-09-19T03:24:22;99676.38;;;25.62;51.31
54236;BME280;40151;43.606;1.472;2023-09-19T03:26:48;99675.50;;;25.61;51.07
54236;BME280;40151;43.606;1.472;2023-09-19T03:29:14;99672.00;;;25.60;51.33
54236;BME280;40151;43.606;1.472;2023-09-19T03:31:41;99672.81;;;25.61;50.95
54236;BME280;40151;43.606;1.472;2023-09-19T03:34:06;99668.47;;;25.60;51.14
54236;BME280;40151;43.606;1.472;2023-09-19T03:36:35;99664.09;;;25.59;51.03
54236;BME280;40151;43.606;1.472;2023-09-19T03:39:01;99672.09;;;25.59;50.89
54236;BME280;40151;43.606;1.472;2023-09-19T03:41:26;99670.41;;;25.58;51.15
54236;BME280;40151;43.606;1.472;2023-09-19T03:43:52;99673.19;;;25.56;51.16
54236;BME280;40151;43.606;1.472;2023-09-19T03:46:18;99670.41;;;25.58;51.27
54236;BME280;40151;43.606;1.472;2023-09-19T03:48:43;99670.63;;;25.55;50.97
54236;BME280;40151;43.606;1.472;2023-09-19T03:51:09;99670.63;;;25.55;51.05
54236;BME280;40151;43.606;1.472;2023-09-19T03:53:34;99675.03;;;25.56;51.16
54236;BME280;40151;43.606;1.472;2023-09-19T03:56:00;99664.53;;;25.53;51.13
54236;BME280;40151;43.606;1.472;2023-09-19T03:58:26;99671.69;;;25.52;50.92
54236;BME280;40151;43.606;1.472;2023-09-19T04:00:55;99657.50;;;25.52;51.00
54236;BME280;40151;43.606;1.472;2023-09-19T04:03:21;99665.28;;;25.55;50.88
54236;BME280;40151;43.606;1.472;2023-09-19T04:05:46;99658.47;;;25.51;50.95
54236;BME280;40151;43.606;1.472;2023-09-19T04:08:15;99659.41;;;25.50;50.93
54236;BME280;40151;43.606;1.472;2023-09-19T04:10:43;99653.97;;;25.51;50.76
54236;BME280;40151;43.606;1.472;2023-09-19T04:13:09;99661.16;;;25.51;51.01
54236;BME280;40151;43.606;1.472;2023-09-19T04:15:36;99654.22;;;25.48;50.84
54236;BME280;40151;43.606;1.472;2023-09-19T04:18:03;99664.03;;;25.47;50.96
54236;BME280;40151;43.606;1.472;2023-09-19T04:20:28;99662.22;;;25.48;50.90
54236;BME280;40151;43.606;1.472;2023-09-19T04:22:54;99657.72;;;25.48;51.01
54236;BME280;40151;43.606;1.472;2023-09-19T04:25:20;99658.69;;;25.47;50.99
54236;BME280;40151;43.606;1.472;2023-09-19T04:27:46;99656.75;;;25.50;50.97
54236;BME280;40151;43.606;1.472;2023-09-19T04:30:11;99651.53;;;25.48;51.03
54236;BME280;40151;43.606;1.472;2023-09-19T04:32:38;99655.91;;;25.49;50.83
54236;BME280;40151;43.606;1.472;2023-09-19T04:35:07;99650.69;;;25.47;50.83
54236;BME280;40151;43.606;1.472;2023-09-19T04:37:38;99656.13;;;25.46;50.95
54236;BME280;40151;43.606;1.472;2023-09-19T04:40:08;99658.94;;;25.44;51.05
54236;BME280;40151;43.606;1.472;2023-09-19T04:42:38;99657.84;;;25.47;51.11
54236;BME280;40151;43.606;1.472;2023-09-19T04:45:04;99654.44;;;25.45;50.94
54236;BME280;40151;43.606;1.472;2023-09-19T04:47:30;99656.38;;;25.43;50.70
54236;BME280;40151;43.606;1.472;2023-09-19T04:49:55;99655.53;;;25.42;50.83
54236;BME280;40151;43.606;1.472;2023-09-19T04:52:23;99653.72;;;25.43;50.87
54236;BME280;40151;43.606;1.472;2023-09-19T04:54:48;99648.00;;;25.47;51.08
54236;BME280;40151;43.606;1.472;2023-09-19T04:57:14;99647.50;;;25.42;51.07
54236;BME280;40151;43.606;1.472;2023-09-19T04:59:40;99649.22;;;25.43;51.08
54236;BME280;40151;43.606;1.472;2023-09-19T05:02:06;99652.97;;;25.41;50.69
54236;BME280;40151;43.606;1.472;2023-09-19T05:04:33;99655.53;;;25.42;51.07
54236;BME280;40151;43.606;1.472;2023-09-19T05:06:58;99658.31;;;25.41;50.86
54236;BME280;40151;43.606;1.472;2023-09-19T05:09:26;99663.03;;;25.37;51.15
54236;BME280;40151;43.606;1.472;2023-09-19T05:11:51;99654.91;;;25.39;51.09
54236;BME280;40151;43.606;1.472;2023-09-19T05:14:18;99665.72;;;25.37;51.21
54236;BME280;40151;43.606;1.472;2023-09-19T05:16:44;99661.34;;;25.36;50.96
54236;BME280;40151;43.606;1.472;2023-09-19T05:19:09;99665.84;;;25.36;50.96
54236;BME280;40151;43.606;1.472;2023-09-19T05:21:36;99664.97;;;25.35;50.89
54236;BME280;40151;43.606;1.472;2023-09-19T05:24:05;99672.03;;;25.36;50.93
54236;BME280;40151;43.606;1.472;2023-09-19T05:26:32;99674.94;;;25.33;50.94
54236;BME280;40151;43.606;1.472;2023-09-19T05:28:57;99675.78;;;25.33;51.30
54236;BME280;40151;43.606;1.472;2023-09-19T05:31:23;99677.63;;;25.33;51.20
54236;BME280;40151;43.606;1.472;2023-09-19T05:33:49;99682.97;;;25.33;51.17
54236;BME280;40151;43.606;1.472;2023-09-19T05:36:15;99677.84;;;25.30;51.24
54236;BME280;40151;43.606;1.472;2023-09-19T05:38:45;99682.34;;;25.29;51.00
54236;BME280;40151;43.606;1.472;2023-09-19T05:41:10;99690.22;;;25.31;51.32
54236;BME280;40151;43.606;1.472;2023-09-19T05:43:39;99687.53;;;25.31;51.27
54236;BME280;40151;43.606;1.472;2023-09-19T05:46:06;99687.69;;;25.29;51.25
54236;BME280;40151;43.606;1.472;2023-09-19T05:48:33;99690.22;;;25.31;50.87
54236;BME280;40151;43.606;1.472;2023-09-19T05:50:58;99703.72;;;25.29;51.00
54236;BME280;40151;43.606;1.472;2023-09-19T05:53:24;99703.81;;;25.28;51.07
54236;BME280;40151;43.606;1.472;2023-09-19T05:55:49;99702.84;;;25.29;50.53
54236;BME280;40151;43.606;1.472;2023-09-19T05:58:15;99707.31;;;25.28;51.16
54236;BME280;40151;43.606;1.472;2023-09-19T06:00:42;99707.31;;;25.28;51.10
54236;BME280;40151;43.606;1.472;2023-09-19T06:03:09;99721.53;;;25.29;50.87
54236;BME280;40151;43.606;1.472;2023-09-19T06:05:37;99712.66;;;25.28;51.10
54236;BME280;40151;43.606;1.472;2023-09-19T06:08:05;99710.13;;;25.27;51.01
54236;BME280;40151;43.606;1.472;2023-09-19T06:10:36;99722.72;;;25.25;51.30
54236;BME280;40151;43.606;1.472;2023-09-19T06:13:02;99723.47;;;25.27;51.00
54236;BME280;40151;43.606;1.472;2023-09-19T06:15:31;99723.47;;;25.27;51.07
54236;BME280;40151;43.606;1.472;2023-09-19T06:17:59;99724.44;;;25.26;50.88
54236;BME280;40151;43.606;1.472;2023-09-19T06:20:25;99727.97;;;25.26;50.91
54236;BME280;40151;43.606;1.472;2023-09-19T06:22:52;99720.81;;;25.27;50.96
54236;BME280;40151;43.606;1.472;2023-09-19T06:25:17;99727.84;;;25.28;50.78
54236;BME280;40151;43.606;1.472;2023-09-19T06:27:51;99720.81;;;25.27;51.05
54236;BME280;40151;43.606;1.472;2023-09-19T06:30:19;99729.03;;;25.24;51.23
54236;BME280;40151;43.606;1.472;2023-09-19T06:32:45;99731.50;;;25.27;50.77
54236;BME280;40151;43.606;1.472;2023-09-19T06:35:15;99729.56;;;25.29;51.08
54236;BME280;40151;43.606;1.472;2023-09-19T06:37:42;99723.34;;;25.28;51.06
54236;BME280;40151;43.606;1.472;2023-09-19T06:40:09;99720.81;;;25.27;50.82
54236;BME280;40151;43.606;1.472;2023-09-19T06:42:46;99724.22;;;25.29;50.96
54236;BME280;40151;43.606;1.472;2023-09-19T06:45:12;99731.25;;;25.30;50.87
54236;BME280;40151;43.606;1.472;2023-09-19T06:47:42;99723.97;;;25.32;51.08
54236;BME280;40151;43.606;1.472;2023-09-19T06:50:08;99731.25;;;25.30;51.03
54236;BME280;40151;43.606;1.472;2023-09-19T06:52:41;99723.03;;;25.33;50.85
54236;BME280;40151;43.606;1.472;2023-09-19T06:55:07;99720.34;;;25.33;50.90
54236;BME280;40151;43.606;1.472;2023-09-19T06:57:34;99720.34;;;25.33;50.71
54236;BME280;40151;43.606;1.472;2023-09-19T07:00:00;99721.28;;;25.32;51.04
54236;BME280;40151;43.606;1.472;2023-09-19T07:02:27;99726.63;;;25.32;50.80
54236;BME280;40151;43.606;1.472;2023-09-19T07:04:52;99725.69;;;25.33;51.10
54236;BME280;40151;43.606;1.472;2023-09-19T07:07:17;99724.31;;;25.27;51.03
54236;BME280;40151;43.606;1.472;2023-09-19T07:09:43;99728.22;;;25.34;50.99
54236;BME280;40151;43.606;1.472;2023-09-19T07:12:08;99728.09;;;25.36;51.03
54236;BME280;40151;43.606;1.472;2023-09-19T07:14:33;99729.31;;;25.32;50.96
54236;BME280;40151;43.606;1.472;2023-09-19T07:16:59;99725.69;;;25.33;51.05
54236;BME280;40151;43.606;1.472;2023-09-19T07:19:28;99722.78;;;25.36;50.71
54236;BME280;40151;43.606;1.472;2023-09-19T07:21:55;99717.53;;;25.34;50.73
54236;BME280;40151;43.606;1.472;2023-09-19T07:24:20;99717.78;;;25.31;51.04
54236;BME280;40151;43.606;1.472;2023-09-19T07:26:49;99729.31;;;25.32;50.95
54236;BME280;40151;43.606;1.472;2023-09-19T07:29:15;99716.47;;;25.37;51.10
54236;BME280;40151;43.606;1.472;2023-09-19T07:31:40;99716.47;;;25.37;50.88
54236;BME280;40151;43.606;1.472;2023-09-19T07:34:05;99717.53;;;25.34;51.04
54236;BME280;40151;43.606;1.472;2023-09-19T07:36:34;99720.56;;;25.30;50.84
54236;BME280;40151;43.606;1.472;2023-09-19T07:38:59;99721.78;;;25.37;50.82
54236;BME280;40151;43.606;1.472;2023-09-19T07:41:25;99728.88;;;25.38;50.79
54236;BME280;40151;43.606;1.472;2023-09-19T07:43:51;99727.03;;;25.39;50.58
54236;BME280;40151;43.606;1.472;2023-09-19T07:46:16;99725.22;;;25.39;50.88
54236;BME280;40151;43.606;1.472;2023-09-19T07:48:41;99722.41;;;25.41;50.90
54236;BME280;40151;43.606;1.472;2023-09-19T07:51:09;99725.22;;;25.39;50.76
54236;BME280;40151;43.606;1.472;2023-09-19T07:53:35;99732.25;;;25.40;51.02
54236;BME280;40151;43.606;1.472;2023-09-19T07:56:05;99727.66;;;25.42;50.95
54236;BME280;40151;43.606;1.472;2023-09-19T07:58:31;99721.59;;;25.40;50.84
54236;BME280;40151;43.606;1.472;2023-09-19T08:01:02;99728.63;;;25.41;50.70
54236;BME280;40151;43.606;1.472;2023-09-19T08:03:27;99729.47;;;25.42;50.85
54236;BME280;40151;43.606;1.472;2023-09-19T08:05:52;99733.00;;;25.42;50.66
54236;BME280;40151;43.606;1.472;2023-09-19T08:08:18;99737.81;;;25.37;50.95
54236;BME280;40151;43.606;1.472;2023-09-19T08:10:43;99732.25;;;25.40;50.62
54236;BME280;40151;43.606;1.472;2023-09-19T08:13:10;99742.94;;;25.40;50.80
54236;BME280;40151;43.606;1.472;2023-09-19T08:15:43;99741.25;;;25.39;50.87
54236;BME280;40151;43.606;1.472;2023-09-19T08:18:09;99741.25;;;25.39;50.67
54236;BME280;40151;43.606;1.472;2023-09-19T08:20:38;99743.06;;;25.39;50.69
54236;BME280;40151;43.606;1.472;2023-09-19T08:23:03;99742.94;;;25.40;50.97
54236;BME280;40151;43.606;1.472;2023-09-19T08:25:29;99751.69;;;25.42;50.64
54236;BME280;40151;43.606;1.472;2023-09-19T08:27:55;99753.38;;;25.43;50.62
54236;BME280;40151;43.606;1.472;2023-09-19T08:30:23;99757.03;;;25.42;50.60
54236;BME280;40151;43.606;1.472;2023-09-19T08:32:51;99756.31;;;25.40;50.78
54236;BME280;40151;43.606;1.472;2023-09-19T08:35:16;99757.28;;;25.39;50.76
54236;BME280;40151;43.606;1.472;2023-09-19T08:37:42;99762.84;;;25.36;50.65
54236;BME280;40151;43.606;1.472;2023-09-19T08:40:10;99755.78;;;25.35;51.17
54236;BME280;40151;43.606;1.472;2023-09-19T08:42:54;99759.19;;;25.37;51.07
54236;BME280;40151;43.606;1.472;2023-09-19T08:45:24;99758.34;;;25.37;51.09
54236;BME280;40151;43.606;1.472;2023-09-19T08:48:23;99759.09;;;25.39;51.04
54236;BME280;40151;43.606;1.472;2023-09-19T08:50:57;99750.25;;;25.38;50.83
54236;BME280;40151;43.606;1.472;2023-09-19T08:56:17;99747.44;;;25.40;50.91
54236;BME280;40151;43.606;1.472;2023-09-19T08:58:57;99758.97;;;25.40;50.82
54236;BME280;40151;43.606;1.472;2023-09-19T09:01:27;99758.00;;;25.41;51.08
54236;BME280;40151;43.606;1.472;2023-09-19T09:03:53;99760.69;;;25.41;50.93
54236;BME280;40151;43.606;1.472;2023-09-19T09:06:23;99755.44;;;25.40;50.93
54236;BME280;40151;43.606;1.472;2023-09-19T09:08:50;99748.28;;;25.40;50.80
54236;BME280;40151;43.606;1.472;2023-09-19T09:11:16;99752.66;;;25.41;50.81
54236;BME280;40151;43.606;1.472;2023-09-19T09:13:45;99755.94;;;25.45;50.91
54236;BME280;40151;43.606;1.472;2023-09-19T09:16:13;99754.88;;;25.47;50.73
54236;BME280;40151;43.606;1.472;2023-09-19T09:18:40;99755.94;;;25.45;51.07
54236;BME280;40151;43.606;1.472;2023-09-19T09:21:06;99756.56;;;25.48;51.05
54236;BME280;40151;43.606;1.472;2023-09-19T09:23:32;99755.59;;;25.50;51.06
54236;BME280;40151;43.606;1.472;2023-09-19T09:25:59;99755.47;;;25.51;50.93
54236;BME280;40151;43.606;1.472;2023-09-19T09:28:29;99752.91;;;25.50;50.76
54236;BME280;40151;43.606;1.472;2023-09-19T09:30:56;99747.34;;;25.53;50.69
54236;BME280;40151;43.606;1.472;2023-09-19T09:33:23;99740.31;;;25.52;50.79
54236;BME280;40151;43.606;1.472;2023-09-19T09:35:53;99739.25;;;25.54;50.59
54236;BME280;40151;43.606;1.472;2023-09-19T09:38:23;99737.31;;;25.56;50.73
54236;BME280;40151;43.606;1.472;2023-09-19T09:40:58;99741.56;;;25.59;50.48
54236;BME280;40151;43.606;1.472;2023-09-19T09:43:37;99739.53;;;25.63;50.49
54236;BME280;40151;43.606;1.472;2023-09-19T09:46:08;99739.53;;;25.63;50.80
54236;BME280;40151;43.606;1.472;2023-09-19T09:51:42;99730.19;;;25.68;50.78
54236;BME280;40151;43.606;1.472;2023-09-19T09:54:18;99731.13;;;25.67;50.58
54236;BME280;40151;43.606;1.472;2023-09-19T09:56:59;99735.28;;;25.71;50.76
54236;BME280;40151;43.606;1.472;2023-09-19T10:02:25;99734.19;;;25.74;50.83
54236;BME280;40151;43.606;1.472;2023-09-19T10:04:57;99735.19;;;25.73;50.49
54236;BME280;40151;43.606;1.472;2023-09-19T10:07:35;99730.66;;;25.73;50.42
54236;BME280;40151;43.606;1.472;2023-09-19T10:10:04;99727.06;;;25.74;50.48
54236;BME280;40151;43.606;1.472;2023-09-19T10:12:38;99729.72;;;25.74;50.31
54236;BME280;40151;43.606;1.472;2023-09-19T10:15:08;99728.75;;;25.76;50.42
54236;BME280;40151;43.606;1.472;2023-09-19T10:17:36;99732.25;;;25.76;50.59
54236;BME280;40151;43.606;1.472;2023-09-19T10:20:05;99726.06;;;25.76;50.47
54236;BME280;40151;43.606;1.472;2023-09-19T10:22:43;99730.44;;;25.77;50.28
54236;BME280;40151;43.606;1.472;2023-09-19T10:25:24;99730.34;;;25.78;50.53
54236;BME280;40151;43.606;1.472;2023-09-19T10:27:51;99726.69;;;25.79;50.75
54236;BME280;40151;43.606;1.472;2023-09-19T10:30:20;99732.03;;;25.79;50.45
54236;BME280;40151;43.606;1.472;2023-09-19T10:32:46;99723.03;;;25.80;50.56
54236;BME280;40151;43.606;1.472;2023-09-19T10:35:16;99726.56;;;25.81;50.58
54236;BME280;40151;43.606;1.472;2023-09-19T10:37:44;99722.91;;;25.82;50.44
54236;BME280;40151;43.606;1.472;2023-09-19T10:40:15;99713.22;;;25.81;50.45
54236;BME280;40151;43.606;1.472;2023-09-19T10:42:42;99706.88;;;25.82;50.72
54236;BME280;40151;43.606;1.472;2023-09-19T10:45:08;99705.91;;;25.83;50.83
54236;BME280;40151;43.606;1.472;2023-09-19T10:47:38;99700.56;;;25.83;50.71
54236;BME280;40151;43.606;1.472;2023-09-19T10:50:06;99702.25;;;25.84;50.49
54236;BME280;40151;43.606;1.472;2023-09-19T10:52:40;99699.59;;;25.84;50.50
54236;BME280;40151;43.606;1.472;2023-09-19T10:55:07;99690.59;;;25.85;50.81
54236;BME280;40151;43.606;1.472;2023-09-19T10:57:35;99682.56;;;25.85;50.42
54236;BME280;40151;43.606;1.472;2023-09-19T11:00:08;99690.59;;;25.85;50.41
54236;BME280;40151;43.606;1.472;2023-09-19T11:05:42;99685.13;;;25.86;50.53
54236;BME280;40151;43.606;1.472;2023-09-19T11:08:08;99683.31;;;25.87;50.44
54236;BME280;40151;43.606;1.472;2023-09-19T11:10:48;99682.34;;;25.88;50.43
54236;BME280;40151;43.606;1.472;2023-09-19T11:13:29;99672.53;;;25.89;50.65
54236;BME280;40151;43.606;1.472;2023-09-19T11:24:28;99664.34;;;25.90;50.50
54236;BME280;40151;43.606;1.472;2023-09-19T11:27:13;99653.66;;;25.90;50.58
54236;BME280;40151;43.606;1.472;2023-09-19T11:29:39;99650.00;;;25.91;50.41
54236;BME280;40151;43.606;1.472;2023-09-19T11:32:06;99646.50;;;25.91;50.50
54236;BME280;40151;43.606;1.472;2023-09-19T11:34:41;99648.19;;;25.92;50.50
54236;BME280;40151;43.606;1.472;2023-09-19T11:39:37;99646.38;;;25.92;50.80
54236;BME280;40151;43.606;1.472;2023-09-19T11:48:15;99636.41;;;25.94;50.75
54236;BME280;40151;43.606;1.472;2023-09-19T11:50:47;99635.44;;;25.95;50.82
54236;BME280;40151;43.606;1.472;2023-09-19T11:53:14;99632.75;;;25.95;50.77
54236;BME280;40151;43.606;1.472;2023-09-19T11:55:41;99637.13;;;25.96;50.49
54236;BME280;40151;43.606;1.472;2023-09-19T11:58:10;99622.81;;;25.97;50.59
54236;BME280;40151;43.606;1.472;2023-09-19T12:00:41;99626.44;;;25.96;50.87
54236;BME280;40151;43.606;1.472;2023-09-19T12:03:10;99622.81;;;25.97;50.31
54236;BME280;40151;43.606;1.472;2023-09-19T12:05:36;99622.81;;;25.97;50.80
54236;BME280;40151;43.606;1.472;2023-09-19T12:08:04;99613.81;;;25.98;50.86
54236;BME280;40151;43.606;1.472;2023-09-19T12:10:32;99618.06;;;26.01;50.48
54236;BME280;40151;43.606;1.472;2023-09-19T12:12:58;99601.16;;;26.00;50.52
54236;BME280;40151;43.606;1.472;2023-09-19T12:15:27;99613.56;;;26.01;50.72
54236;BME280;40151;43.606;1.472;2023-09-19T12:17:54;99616.13;;;26.03;50.56
54236;BME280;40151;43.606;1.472;2023-09-19T12:20:19;99607.22;;;26.03;50.58
54236;BME280;40151;43.606;1.472;2023-09-19T12:22:46;99607.22;;;26.03;50.82
54236;BME280;40151;43.606;1.472;2023-09-19T12:25:12;99606.28;;;26.04;50.42
54236;BME280;40151;43.606;1.472;2023-09-19T12:27:45;99607.13;;;26.04;50.56
54236;BME280;40151;43.606;1.472;2023-09-19T12:30:27;99595.59;;;26.04;50.55
54236;BME280;40151;43.606;1.472;2023-09-19T12:32:53;99595.59;;;26.04;50.15
54236;BME280;40151;43.606;1.472;2023-09-19T12:35:37;99598.13;;;26.05;50.48
54236;BME280;40151;43.606;1.472;2023-09-19T12:38:04;99597.28;;;26.05;50.43
54236;BME280;40151;43.606;1.472;2023-09-19T12:40:31;99593.63;;;26.06;50.26
54236;BME280;40151;43.606;1.472;2023-09-19T12:42:59;99603.34;;;26.07;50.37
54236;BME280;40151;43.606;1.472;2023-09-19T12:45:25;99583.78;;;26.06;50.23
54236;BME280;40151;43.606;1.472;2023-09-19T12:48:19;99579.28;;;26.07;50.45
54236;BME280;40151;43.606;1.472;2023-09-19T12:53:29;99577.31;;;26.09;50.72
54236;BME280;40151;43.606;1.472;2023-09-19T12:56:00;99571.97;;;26.09;50.61
54236;BME280;40151;43.606;1.472;2023-09-19T12:58:26;99557.66;;;26.10;50.46
54236;BME280;40151;43.606;1.472;2023-09-19T13:00:52;99554.00;;;26.11;50.40
54236;BME280;40151;43.606;1.472;2023-09-19T13:03:28;99561.03;;;26.12;50.63
54236;BME280;40151;43.606;1.472;2023-09-19T13:06:00;99547.69;;;26.12;50.38
54236;BME280;40151;43.606;1.472;2023-09-19T13:08:32;99550.34;;;26.12;50.70
54236;BME280;40151;43.606;1.472;2023-09-19T13:13:35;99540.38;;;26.14;50.69
54236;BME280;40151;43.606;1.472;2023-09-19T13:16:02;99532.34;;;26.14;50.39
54236;BME280;40151;43.606;1.472;2023-09-19T13:18:30;99532.34;;;26.14;50.53
54236;BME280;40151;43.606;1.472;2023-09-19T13:21:14;99529.53;;;26.16;50.63
54236;BME280;40151;43.606;1.472;2023-09-19T13:23:52;99530.41;;;26.16;50.39
54236;BME280;40151;43.606;1.472;2023-09-19T13:26:18;99524.09;;;26.17;50.56
54236;BME280;40151;43.606;1.472;2023-09-19T13:28:44;99517.75;;;26.18;50.63
54236;BME280;40151;43.606;1.472;2023-09-19T13:31:10;99519.72;;;26.16;50.20
54236;BME280;40151;43.606;1.472;2023-09-19T13:33:43;99515.94;;;26.19;49.92
54236;BME280;40151;43.606;1.472;2023-09-19T13:36:08;99515.06;;;26.18;49.26
54236;BME280;40151;43.606;1.472;2023-09-19T13:38:34;99507.06;;;26.18;50.16
54236;BME280;40151;43.606;1.472;2023-09-19T13:41:00;99498.06;;;26.19;49.33
54236;BME280;40151;43.606;1.472;2023-09-19T13:43:27;99505.09;;;26.20;49.85
54236;BME280;40151;43.606;1.472;2023-09-19T13:45:54;99498.06;;;26.19;49.81
54236;BME280;40151;43.606;1.472;2023-09-19T13:48:19;99489.03;;;26.20;49.83
54236;BME280;40151;43.606;1.472;2023-09-19T13:50:48;99494.41;;;26.20;50.45
54236;BME280;40151;43.606;1.472;2023-09-19T13:53:13;99489.03;;;26.20;50.07
54236;BME280;40151;43.606;1.472;2023-09-19T13:55:39;99491.59;;;26.22;50.21
54236;BME280;40151;43.606;1.472;2023-09-19T13:58:05;99488.84;;;26.23;50.15
54236;BME280;40151;43.606;1.472;2023-09-19T14:00:32;99479.22;;;26.21;49.33